sensor_id;sensor_type;location;lat;lon;timestamp;P1;durP1;ratioP1;P2;durP2;ratioP2
23676;SDS011;31493;49.058;12.190;2024-01-15T00:01:31;68.85;;;29.63;;
23676;SDS011;31493;49.058;12.190;2024-01-15T00:03:58;67.18;;;29.33;;
23676;SDS011;31493;49.058;12.190;2024-01-15T00:06:26;71.43;;;32.53;;
23676;SDS011;31493;49.058;12.190;2024-01-15T00:08:54;55.75;;;23.20;;
23676;SDS011;31493;49.058;12.190;2024-01-15T00:11:22;63.60;;;28.40;;
23676;SDS011;31493;49.058;12.190;2024-01-15T00:13:49;64.45;;;28.17;;
23676;SDS011;31493;49.058;12.190;2024-01-15T00:16:16;48.85;;;21.58;;
23676;SDS011;31493;49.058;12.190;2024-01-15T00:18:43;60.35;;;25.73;;
23676;SDS011;31493;49.058;12.190;2024-01-15T00:21:10;48.63;;;22.17;;
23676;SDS011;31493;49.058;12.190;2024-01-15T00:23:39;60.15;;;28.63;;
23676;SDS011;31493;49.058;12.190;2024-01-15T00:26:09;65.72;;;26.40;;
23676;SDS011;31493;49.058;12.190;2024-01-15T00:28:37;63.35;;;27.35;;
23676;SDS011;31493;49.058;12.190;2024-01-15T00:31:04;60.33;;;26.88;;
23676;SDS011;31493;49.058;12.190;2024-01-15T00:33:32;58.53;;;26.75;;
23676;SDS011;31493;49.058;12.190;2024-01-15T00:35:59;53.63;;;23.65;;
23676;SDS011;31493;49.058;12.190;2024-01-15T00:38:26;64.53;;;28.40;;
23676;SDS011;31493;49.058;12.190;2024-01-15T00:40:53;62.00;;;27.15;;
23676;SDS011;31493;49.058;12.190;2024-01-15T00:43:20;60.63;;;26.45;;
23676;SDS011;31493;49.058;12.190;2024-01-15T00:45:48;65.68;;;29.02;;
23676;SDS011;31493;49.058;12.190;2024-01-15T00:48:15;59.40;;;27.52;;
23676;SDS011;31493;49.058;12.190;2024-01-15T00:50:42;58.85;;;27.45;;
23676;SDS011;31493;49.058;12.190;2024-01-15T00:53:09;60.30;;;27.50;;
23676;SDS011;31493;49.058;12.190;2024-01-15T00:55:36;46.53;;;18.77;;
23676;SDS011;31493;49.058;12.190;2024-01-15T00:58:04;57.88;;;24.02;;
23676;SDS011;31493;49.058;12.190;2024-01-15T01:00:31;57.10;;;23.70;;
23676;SDS011;31493;49.058;12.190;2024-01-15T01:02:59;34.95;;;13.70;;
23676;SDS011;31493;49.058;12.190;2024-01-15T01:05:26;38.67;;;15.48;;
23676;SDS011;31493;49.058;12.190;2024-01-15T01:07:53;67.18;;;25.70;;
23676;SDS011;31493;49.058;12.190;2024-01-15T01:10:20;56.85;;;22.77;;
23676;SDS011;31493;49.058;12.190;2024-01-15T01:12:47;64.13;;;23.60;;
23676;SDS011;31493;49.058;12.190;2024-01-15T01:15:14;58.65;;;23.42;;
23676;SDS011;31493;49.058;12.190;2024-01-15T01:17:41;57.47;;;22.45;;
23676;SDS011;31493;49.058;12.190;2024-01-15T01:20:10;59.72;;;24.38;;
23676;SDS011;31493;49.058;12.190;2024-01-15T01:25:04;60.35;;;24.02;;
23676;SDS011;31493;49.058;12.190;2024-01-15T01:27:32;57.85;;;20.35;;
23676;SDS011;31493;49.058;12.190;2024-01-15T01:29:59;60.63;;;24.13;;
23676;SDS011;31493;49.058;12.190;2024-01-15T01:32:26;64.10;;;26.42;;
23676;SDS011;31493;49.058;12.190;2024-01-15T01:34:53;55.67;;;23.75;;
23676;SDS011;31493;49.058;12.190;2024-01-15T01:37:21;64.43;;;26.38;;
23676;SDS011;31493;49.058;12.190;2024-01-15T01:39:48;56.28;;;23.83;;
23676;SDS011;31493;49.058;12.190;2024-01-15T01:42:15;66.97;;;24.83;;
23676;SDS011;31493;49.058;12.190;2024-01-15T01:44:42;72.15;;;27.42;;
23676;SDS011;31493;49.058;12.190;2024-01-15T01:47:10;66.13;;;25.67;;
23676;SDS011;31493;49.058;12.190;2024-01-15T01:49:37;65.57;;;24.83;;
23676;SDS011;31493;49.058;12.190;2024-01-15T01:52:05;67.13;;;26.52;;
23676;SDS011;31493;49.058;12.190;2024-01-15T01:54:34;68.80;;;26.00;;
23676;SDS011;31493;49.058;12.190;2024-01-15T01:57:03;62.95;;;23.63;;
23676;SDS011;31493;49.058;12.190;2024-01-15T01:59:32;65.00;;;25.23;;
23676;SDS011;31493;49.058;12.190;2024-01-15T02:04:29;57.45;;;21.88;;
23676;SDS011;31493;49.058;12.190;2024-01-15T02:06:58;63.45;;;25.02;;
23676;SDS011;31493;49.058;12.190;2024-01-15T02:09:25;57.90;;;21.53;;
23676;SDS011;31493;49.058;12.190;2024-01-15T02:11:54;61.30;;;22.95;;
23676;SDS011;31493;49.058;12.190;2024-01-15T02:14:21;58.58;;;21.73;;
23676;SDS011;31493;49.058;12.190;2024-01-15T02:16:48;58.88;;;23.75;;
23676;SDS011;31493;49.058;12.190;2024-01-15T02:19:15;61.42;;;22.70;;
23676;SDS011;31493;49.058;12.190;2024-01-15T02:21:43;62.70;;;23.57;;
23676;SDS011;31493;49.058;12.190;2024-01-15T02:24:12;53.92;;;18.95;;
23676;SDS011;31493;49.058;12.190;2024-01-15T02:26:39;55.80;;;21.75;;
23676;SDS011;31493;49.058;12.190;2024-01-15T02:29:07;58.90;;;20.65;;
23676;SDS011;31493;49.058;12.190;2024-01-15T02:31:34;51.87;;;20.60;;
23676;SDS011;31493;49.058;12.190;2024-01-15T02:34:01;54.38;;;20.30;;
23676;SDS011;31493;49.058;12.190;2024-01-15T02:36:29;50.58;;;19.05;;
23676;SDS011;31493;49.058;12.190;2024-01-15T02:38:56;51.95;;;20.25;;
23676;SDS011;31493;49.058;12.190;2024-01-15T02:41:24;53.40;;;20.05;;
23676;SDS011;31493;49.058;12.190;2024-01-15T02:43:51;53.67;;;21.63;;
23676;SDS011;31493;49.058;12.190;2024-01-15T02:46:18;47.13;;;19.15;;
23676;SDS011;31493;49.058;12.190;2024-01-15T02:48:45;61.08;;;20.98;;
23676;SDS011;31493;49.058;12.190;2024-01-15T02:51:12;56.67;;;20.13;;
23676;SDS011;31493;49.058;12.190;2024-01-15T02:53:39;55.22;;;20.35;;
23676;SDS011;31493;49.058;12.190;2024-01-15T02:56:06;51.50;;;18.15;;
23676;SDS011;31493;49.058;12.190;2024-01-15T02:58:35;50.63;;;20.20;;
23676;SDS011;31493;49.058;12.190;2024-01-15T03:01:02;50.38;;;16.45;;
23676;SDS011;31493;49.058;12.190;2024-01-15T03:03:29;49.75;;;20.63;;
23676;SDS011;31493;49.058;12.190;2024-01-15T03:05:56;51.70;;;18.42;;
23676;SDS011;31493;49.058;12.190;2024-01-15T03:08:23;52.10;;;18.88;;
23676;SDS011;31493;49.058;12.190;2024-01-15T03:10:50;52.88;;;20.60;;
23676;SDS011;31493;49.058;12.190;2024-01-15T03:13:17;45.70;;;17.02;;
23676;SDS011;31493;49.058;12.190;2024-01-15T03:15:46;48.67;;;17.77;;
23676;SDS011;31493;49.058;12.190;2024-01-15T03:18:13;50.85;;;20.33;;
23676;SDS011;31493;49.058;12.190;2024-01-15T03:20:40;46.47;;;17.75;;
23676;SDS011;31493;49.058;12.190;2024-01-15T03:23:07;49.47;;;17.13;;
23676;SDS011;31493;49.058;12.190;2024-01-15T03:25:34;43.30;;;17.75;;
23676;SDS011;31493;49.058;12.190;2024-01-15T03:28:01;43.30;;;17.25;;
23676;SDS011;31493;49.058;12.190;2024-01-15T03:30:28;42.15;;;16.83;;
23676;SDS011;31493;49.058;12.190;2024-01-15T03:32:56;42.03;;;16.40;;
23676;SDS011;31493;49.058;12.190;2024-01-15T03:35:23;44.97;;;16.77;;
23676;SDS011;31493;49.058;12.190;2024-01-15T03:37:54;48.75;;;18.45;;
23676;SDS011;31493;49.058;12.190;2024-01-15T03:40:22;43.92;;;17.13;;
23676;SDS011;31493;49.058;12.190;2024-01-15T03:42:49;38.63;;;12.68;;
23676;SDS011;31493;49.058;12.190;2024-01-15T03:45:16;43.83;;;17.10;;
23676;SDS011;31493;49.058;12.190;2024-01-15T03:47:43;40.72;;;15.98;;
23676;SDS011;31493;49.058;12.190;2024-01-15T03:50:11;32.28;;;12.55;;
23676;SDS011;31493;49.058;12.190;2024-01-15T03:52:38;41.83;;;15.40;;
23676;SDS011;31493;49.058;12.190;2024-01-15T03:55:05;40.20;;;16.13;;
23676;SDS011;31493;49.058;12.190;2024-01-15T03:57:33;28.88;;;11.50;;
23676;SDS011;31493;49.058;12.190;2024-01-15T04:00:00;31.13;;;12.20;;
23676;SDS011;31493;49.058;12.190;2024-01-15T04:02:27;27.05;;;11.82;;
23676;SDS011;31493;49.058;12.190;2024-01-15T04:04:54;37.75;;;14.65;;
23676;SDS011;31493;49.058;12.190;2024-01-15T04:07:22;43.60;;;16.73;;
23676;SDS011;31493;49.058;12.190;2024-01-15T04:09:49;25.80;;;10.57;;
23676;SDS011;31493;49.058;12.190;2024-01-15T04:12:16;39.28;;;15.23;;
23676;SDS011;31493;49.058;12.190;2024-01-15T04:14:43;35.13;;;13.77;;
23676;SDS011;31493;49.058;12.190;2024-01-15T04:17:10;40.33;;;14.57;;
23676;SDS011;31493;49.058;12.190;2024-01-15T04:19:37;18.00;;;7.35;;
23676;SDS011;31493;49.058;12.190;2024-01-15T04:22:04;35.40;;;13.65;;
23676;SDS011;31493;49.058;12.190;2024-01-15T04:24:33;15.85;;;6.47;;
23676;SDS011;31493;49.058;12.190;2024-01-15T04:27:00;33.13;;;12.90;;
23676;SDS011;31493;49.058;12.190;2024-01-15T04:29:27;34.22;;;12.93;;
23676;SDS011;31493;49.058;12.190;2024-01-15T04:31:54;20.52;;;8.63;;
23676;SDS011;31493;49.058;12.190;2024-01-15T04:34:21;24.02;;;9.88;;
23676;SDS011;31493;49.058;12.190;2024-01-15T04:36:48;22.60;;;9.07;;
23676;SDS011;31493;49.058;12.190;2024-01-15T04:39:15;30.48;;;12.68;;
23676;SDS011;31493;49.058;12.190;2024-01-15T04:41:43;30.60;;;12.15;;
23676;SDS011;31493;49.058;12.190;2024-01-15T04:44:10;29.23;;;12.10;;
23676;SDS011;31493;49.058;12.190;2024-01-15T04:46:37;29.38;;;13.13;;
23676;SDS011;31493;49.058;12.190;2024-01-15T04:49:04;32.13;;;13.25;;
23676;SDS011;31493;49.058;12.190;2024-01-15T04:51:31;32.13;;;13.35;;
23676;SDS011;31493;49.058;12.190;2024-01-15T04:53:58;29.17;;;12.43;;
23676;SDS011;31493;49.058;12.190;2024-01-15T04:56:25;28.83;;;11.35;;
23676;SDS011;31493;49.058;12.190;2024-01-15T04:58:54;33.10;;;13.13;;
23676;SDS011;31493;49.058;12.190;2024-01-15T05:01:21;29.38;;;13.57;;
23676;SDS011;31493;49.058;12.190;2024-01-15T05:03:48;32.05;;;13.15;;
23676;SDS011;31493;49.058;12.190;2024-01-15T05:06:15;28.83;;;12.35;;
23676;SDS011;31493;49.058;12.190;2024-01-15T05:08:42;27.02;;;12.60;;
23676;SDS011;31493;49.058;12.190;2024-01-15T05:11:09;17.17;;;6.85;;
23676;SDS011;31493;49.058;12.190;2024-01-15T05:13:36;20.77;;;9.00;;
23676;SDS011;31493;49.058;12.190;2024-01-15T05:16:05;25.67;;;10.10;;
23676;SDS011;31493;49.058;12.190;2024-01-15T05:18:32;29.42;;;13.43;;
23676;SDS011;31493;49.058;12.190;2024-01-15T05:20:59;28.90;;;11.02;;
23676;SDS011;31493;49.058;12.190;2024-01-15T05:23:26;32.42;;;13.18;;
23676;SDS011;31493;49.058;12.190;2024-01-15T05:25:53;31.17;;;11.80;;
23676;SDS011;31493;49.058;12.190;2024-01-15T05:28:20;29.88;;;12.15;;
23676;SDS011;31493;49.058;12.190;2024-01-15T05:30:47;30.65;;;12.82;;
23676;SDS011;31493;49.058;12.190;2024-01-15T05:33:17;32.67;;;14.35;;
23676;SDS011;31493;49.058;12.190;2024-01-15T05:35:44;32.55;;;14.43;;
23676;SDS011;31493;49.058;12.190;2024-01-15T05:38:12;36.00;;;14.13;;
23676;SDS011;31493;49.058;12.190;2024-01-15T05:40:39;30.92;;;13.88;;
23676;SDS011;31493;49.058;12.190;2024-01-15T05:43:06;33.63;;;13.30;;
23676;SDS011;31493;49.058;12.190;2024-01-15T05:45:34;27.92;;;11.65;;
23676;SDS011;31493;49.058;12.190;2024-01-15T05:48:01;24.25;;;9.32;;
23676;SDS011;31493;49.058;12.190;2024-01-15T05:50:29;29.95;;;12.88;;
23676;SDS011;31493;49.058;12.190;2024-01-15T05:52:56;28.58;;;12.48;;
23676;SDS011;31493;49.058;12.190;2024-01-15T05:55:23;30.98;;;12.98;;
23676;SDS011;31493;49.058;12.190;2024-01-15T05:57:50;27.67;;;11.98;;
23676;SDS011;31493;49.058;12.190;2024-01-15T06:00:18;30.98;;;13.00;;
23676;SDS011;31493;49.058;12.190;2024-01-15T06:02:45;19.38;;;7.60;;
23676;SDS011;31493;49.058;12.190;2024-01-15T06:05:12;28.95;;;12.43;;
23676;SDS011;31493;49.058;12.190;2024-01-15T06:07:41;25.35;;;11.43;;
23676;SDS011;31493;49.058;12.190;2024-01-15T06:12:35;29.10;;;12.00;;
23676;SDS011;31493;49.058;12.190;2024-01-15T06:15:02;24.55;;;10.55;;
23676;SDS011;31493;49.058;12.190;2024-01-15T06:17:29;30.13;;;12.77;;
23676;SDS011;31493;49.058;12.190;2024-01-15T06:19:57;27.75;;;11.60;;
23676;SDS011;31493;49.058;12.190;2024-01-15T06:22:24;31.38;;;12.82;;
23676;SDS011;31493;49.058;12.190;2024-01-15T06:24:52;27.73;;;12.80;;
23676;SDS011;31493;49.058;12.190;2024-01-15T06:27:19;30.05;;;12.65;;
23676;SDS011;31493;49.058;12.190;2024-01-15T06:29:46;26.13;;;11.82;;
23676;SDS011;31493;49.058;12.190;2024-01-15T06:32:13;26.20;;;11.35;;
23676;SDS011;31493;49.058;12.190;2024-01-15T06:34:40;21.10;;;10.27;;
23676;SDS011;31493;49.058;12.190;2024-01-15T06:37:07;24.73;;;11.77;;
23676;SDS011;31493;49.058;12.190;2024-01-15T06:39:35;27.10;;;11.75;;
23676;SDS011;31493;49.058;12.190;2024-01-15T06:42:03;30.08;;;12.32;;
23676;SDS011;31493;49.058;12.190;2024-01-15T06:44:31;28.35;;;12.45;;
23676;SDS011;31493;49.058;12.190;2024-01-15T06:46:58;25.30;;;11.73;;
23676;SDS011;31493;49.058;12.190;2024-01-15T06:49:28;23.48;;;10.98;;
23676;SDS011;31493;49.058;12.190;2024-01-15T06:51:55;18.40;;;8.48;;
23676;SDS011;31493;49.058;12.190;2024-01-15T06:54:22;25.08;;;11.13;;
23676;SDS011;31493;49.058;12.190;2024-01-15T06:56:49;24.65;;;10.02;;
23676;SDS011;31493;49.058;12.190;2024-01-15T06:59:18;22.35;;;10.95;;
23676;SDS011;31493;49.058;12.190;2024-01-15T07:01:45;22.42;;;10.30;;
23676;SDS011;31493;49.058;12.190;2024-01-15T07:04:12;21.70;;;9.82;;
23676;SDS011;31493;49.058;12.190;2024-01-15T07:06:39;23.23;;;10.90;;
23676;SDS011;31493;49.058;12.190;2024-01-15T07:09:06;22.67;;;9.73;;
23676;SDS011;31493;49.058;12.190;2024-01-15T07:11:34;25.40;;;12.10;;
23676;SDS011;31493;49.058;12.190;2024-01-15T07:14:01;19.88;;;9.63;;
23676;SDS011;31493;49.058;12.190;2024-01-15T07:16:29;22.77;;;9.05;;
23676;SDS011;31493;49.058;12.190;2024-01-15T07:18:56;22.95;;;9.90;;
23676;SDS011;31493;49.058;12.190;2024-01-15T07:21:23;21.95;;;9.95;;
23676;SDS011;31493;49.058;12.190;2024-01-15T07:23:50;18.08;;;8.75;;
23676;SDS011;31493;49.058;12.190;2024-01-15T07:26:17;18.83;;;8.27;;
23676;SDS011;31493;49.058;12.190;2024-01-15T07:28:44;21.58;;;9.63;;
23676;SDS011;31493;49.058;12.190;2024-01-15T07:31:11;20.50;;;9.88;;
23676;SDS011;31493;49.058;12.190;2024-01-15T07:33:40;14.65;;;6.88;;
23676;SDS011;31493;49.058;12.190;2024-01-15T07:36:07;22.42;;;10.43;;
23676;SDS011;31493;49.058;12.190;2024-01-15T07:38:34;18.67;;;9.10;;
23676;SDS011;31493;49.058;12.190;2024-01-15T07:41:01;19.23;;;9.20;;
23676;SDS011;31493;49.058;12.190;2024-01-15T07:43:29;20.33;;;9.25;;
23676;SDS011;31493;49.058;12.190;2024-01-15T07:45:56;19.77;;;7.85;;
23676;SDS011;31493;49.058;12.190;2024-01-15T07:48:24;15.73;;;7.32;;
23676;SDS011;31493;49.058;12.190;2024-01-15T07:50:52;16.33;;;7.72;;
23676;SDS011;31493;49.058;12.190;2024-01-15T07:53:19;16.92;;;8.75;;
23676;SDS011;31493;49.058;12.190;2024-01-15T07:55:46;18.25;;;9.35;;
23676;SDS011;31493;49.058;12.190;2024-01-15T07:58:13;15.65;;;6.90;;
23676;SDS011;31493;49.058;12.190;2024-01-15T08:00:40;18.58;;;8.88;;
23676;SDS011;31493;49.058;12.190;2024-01-15T08:03:07;21.77;;;8.23;;
23676;SDS011;31493;49.058;12.190;2024-01-15T08:05:34;20.92;;;7.47;;
23676;SDS011;31493;49.058;12.190;2024-01-15T08:08:03;17.08;;;8.30;;
23676;SDS011;31493;49.058;12.190;2024-01-15T08:10:30;16.67;;;8.15;;
23676;SDS011;31493;49.058;12.190;2024-01-15T08:12:57;16.50;;;7.47;;
23676;SDS011;31493;49.058;12.190;2024-01-15T08:15:24;17.60;;;9.10;;
23676;SDS011;31493;49.058;12.190;2024-01-15T08:17:51;17.25;;;6.90;;
23676;SDS011;31493;49.058;12.190;2024-01-15T08:20:18;17.75;;;8.10;;
23676;SDS011;31493;49.058;12.190;2024-01-15T08:22:45;16.92;;;7.90;;
23676;SDS011;31493;49.058;12.190;2024-01-15T08:25:15;17.57;;;6.63;;
23676;SDS011;31493;49.058;12.190;2024-01-15T08:27:42;15.07;;;7.10;;
23676;SDS011;31493;49.058;12.190;2024-01-15T08:30:09;17.90;;;7.82;;
23676;SDS011;31493;49.058;12.190;2024-01-15T08:32:37;13.00;;;6.55;;
23676;SDS011;31493;49.058;12.190;2024-01-15T08:35:07;15.80;;;7.43;;
23676;SDS011;31493;49.058;12.190;2024-01-15T08:37:34;14.30;;;7.47;;
23676;SDS011;31493;49.058;12.190;2024-01-15T08:40:02;14.10;;;6.65;;
23676;SDS011;31493;49.058;12.190;2024-01-15T08:42:30;16.67;;;7.75;;
23676;SDS011;31493;49.058;12.190;2024-01-15T08:44:57;16.27;;;7.25;;
23676;SDS011;31493;49.058;12.190;2024-01-15T08:47:24;15.15;;;7.15;;
23676;SDS011;31493;49.058;12.190;2024-01-15T08:49:51;12.93;;;6.97;;
23676;SDS011;31493;49.058;12.190;2024-01-15T08:52:18;15.73;;;6.22;;
23676;SDS011;31493;49.058;12.190;2024-01-15T08:54:45;12.93;;;6.63;;
23676;SDS011;31493;49.058;12.190;2024-01-15T08:57:12;16.13;;;7.30;;
23676;SDS011;31493;49.058;12.190;2024-01-15T08:59:41;15.77;;;6.45;;
23676;SDS011;31493;49.058;12.190;2024-01-15T09:02:08;15.90;;;6.93;;
23676;SDS011;31493;49.058;12.190;2024-01-15T09:04:35;16.58;;;6.97;;
23676;SDS011;31493;49.058;12.190;2024-01-15T09:07:02;12.32;;;6.50;;
23676;SDS011;31493;49.058;12.190;2024-01-15T09:09:29;14.02;;;6.40;;
23676;SDS011;31493;49.058;12.190;2024-01-15T09:11:56;11.85;;;6.47;;
23676;SDS011;31493;49.058;12.190;2024-01-15T09:14:23;16.23;;;6.97;;
23676;SDS011;31493;49.058;12.190;2024-01-15T09:16:53;17.52;;;7.18;;
23676;SDS011;31493;49.058;12.190;2024-01-15T09:19:21;15.48;;;6.63;;
23676;SDS011;31493;49.058;12.190;2024-01-15T09:21:48;14.13;;;6.93;;
23676;SDS011;31493;49.058;12.190;2024-01-15T09:24:15;17.23;;;7.78;;
23676;SDS011;31493;49.058;12.190;2024-01-15T09:26:43;15.15;;;7.65;;
23676;SDS011;31493;49.058;12.190;2024-01-15T09:29:10;14.00;;;6.18;;
23676;SDS011;31493;49.058;12.190;2024-01-15T09:31:37;11.73;;;5.93;;
23676;SDS011;31493;49.058;12.190;2024-01-15T09:34:05;14.13;;;6.88;;
23676;SDS011;31493;49.058;12.190;2024-01-15T09:36:37;12.23;;;6.00;;
23676;SDS011;31493;49.058;12.190;2024-01-15T09:39:06;11.50;;;5.78;;
23676;SDS011;31493;49.058;12.190;2024-01-15T09:41:34;16.60;;;6.43;;
23676;SDS011;31493;49.058;12.190;2024-01-15T09:44:02;7.53;;;4.30;;
23676;SDS011;31493;49.058;12.190;2024-01-15T09:46:29;9.47;;;4.27;;
23676;SDS011;31493;49.058;12.190;2024-01-15T09:51:28;10.70;;;6.00;;
23676;SDS011;31493;49.058;12.190;2024-01-15T09:53:58;15.40;;;6.65;;
23676;SDS011;31493;49.058;12.190;2024-01-15T09:56:25;13.70;;;6.82;;
23676;SDS011;31493;49.058;12.190;2024-01-15T09:58:52;16.73;;;6.70;;
23676;SDS011;31493;49.058;12.190;2024-01-15T10:01:20;15.38;;;7.40;;
23676;SDS011;31493;49.058;12.190;2024-01-15T10:03:47;16.40;;;6.47;;
23676;SDS011;31493;49.058;12.190;2024-01-15T10:06:15;14.43;;;6.55;;
23676;SDS011;31493;49.058;12.190;2024-01-15T10:08:46;12.93;;;6.40;;
23676;SDS011;31493;49.058;12.190;2024-01-15T10:11:14;15.10;;;6.60;;
23676;SDS011;31493;49.058;12.190;2024-01-15T10:13:42;13.15;;;6.53;;
23676;SDS011;31493;49.058;12.190;2024-01-15T10:16:10;12.27;;;6.55;;
23676;SDS011;31493;49.058;12.190;2024-01-15T10:18:37;14.40;;;5.78;;
23676;SDS011;31493;49.058;12.190;2024-01-15T10:21:06;15.45;;;7.18;;
23676;SDS011;31493;49.058;12.190;2024-01-15T10:23:33;14.95;;;7.55;;
23676;SDS011;31493;49.058;12.190;2024-01-15T10:26:03;14.63;;;7.47;;
23676;SDS011;31493;49.058;12.190;2024-01-15T10:28:31;16.58;;;7.90;;
23676;SDS011;31493;49.058;12.190;2024-01-15T10:30:58;11.73;;;6.43;;
23676;SDS011;31493;49.058;12.190;2024-01-15T10:33:26;11.60;;;6.47;;
23676;SDS011;31493;49.058;12.190;2024-01-15T10:35:54;16.85;;;6.95;;
23676;SDS011;31493;49.058;12.190;2024-01-15T10:38:22;15.82;;;6.60;;
23676;SDS011;31493;49.058;12.190;2024-01-15T10:40:50;15.13;;;7.53;;
23676;SDS011;31493;49.058;12.190;2024-01-15T10:43:19;17.65;;;8.50;;
23676;SDS011;31493;49.058;12.190;2024-01-15T10:45:47;19.15;;;7.90;;
23676;SDS011;31493;49.058;12.190;2024-01-15T10:48:16;14.68;;;6.15;;
23676;SDS011;31493;49.058;12.190;2024-01-15T10:50:45;16.98;;;7.25;;
23676;SDS011;31493;49.058;12.190;2024-01-15T10:53:13;16.37;;;8.13;;
23676;SDS011;31493;49.058;12.190;2024-01-15T10:55:41;17.15;;;7.78;;
23676;SDS011;31493;49.058;12.190;2024-01-15T10:58:09;16.85;;;7.28;;
23676;SDS011;31493;49.058;12.190;2024-01-15T11:00:38;14.63;;;7.45;;
23676;SDS011;31493;49.058;12.190;2024-01-15T11:03:05;13.80;;;6.57;;
23676;SDS011;31493;49.058;12.190;2024-01-15T11:05:33;14.13;;;6.55;;
23676;SDS011;31493;49.058;12.190;2024-01-15T11:08:05;14.40;;;7.20;;
23676;SDS011;31493;49.058;12.190;2024-01-15T11:10:40;13.52;;;7.43;;
23676;SDS011;31493;49.058;12.190;2024-01-15T11:13:15;10.90;;;6.43;;
23676;SDS011;31493;49.058;12.190;2024-01-15T11:16:00;13.50;;;6.38;;
23676;SDS011;31493;49.058;12.190;2024-01-15T11:18:29;8.13;;;4.28;;
23676;SDS011;31493;49.058;12.190;2024-01-15T11:23:49;8.18;;;4.53;;
23676;SDS011;31493;49.058;12.190;2024-01-15T11:29:02;11.23;;;5.40;;
23676;SDS011;31493;49.058;12.190;2024-01-15T11:37:20;10.27;;;5.03;;
23676;SDS011;31493;49.058;12.190;2024-01-15T11:39:50;11.48;;;5.57;;
23676;SDS011;31493;49.058;12.190;2024-01-15T11:42:21;10.25;;;5.65;;
23676;SDS011;31493;49.058;12.190;2024-01-15T11:44:49;10.30;;;4.05;;
23676;SDS011;31493;49.058;12.190;2024-01-15T11:47:24;7.30;;;4.22;;
23676;SDS011;31493;49.058;12.190;2024-01-15T11:50:12;10.48;;;5.32;;
23676;SDS011;31493;49.058;12.190;2024-01-15T11:52:39;12.13;;;6.25;;
23676;SDS011;31493;49.058;12.190;2024-01-15T11:55:12;13.30;;;5.93;;
23676;SDS011;31493;49.058;12.190;2024-01-15T11:57:46;10.50;;;4.95;;
23676;SDS011;31493;49.058;12.190;2024-01-15T12:00:15;10.63;;;5.82;;
23676;SDS011;31493;49.058;12.190;2024-01-15T12:02:44;9.98;;;5.55;;
23676;SDS011;31493;49.058;12.190;2024-01-15T12:05:12;10.70;;;5.20;;
23676;SDS011;31493;49.058;12.190;2024-01-15T12:07:42;13.80;;;5.82;;
23676;SDS011;31493;49.058;12.190;2024-01-15T12:10:09;13.82;;;6.13;;
23676;SDS011;31493;49.058;12.190;2024-01-15T12:12:39;10.57;;;5.20;;
23676;SDS011;31493;49.058;12.190;2024-01-15T12:15:20;10.43;;;5.05;;
23676;SDS011;31493;49.058;12.190;2024-01-15T12:17:48;12.82;;;6.38;;
23676;SDS011;31493;49.058;12.190;2024-01-15T12:20:16;11.02;;;5.10;;
23676;SDS011;31493;49.058;12.190;2024-01-15T12:22:44;11.45;;;5.85;;
23676;SDS011;31493;49.058;12.190;2024-01-15T12:25:12;11.57;;;6.38;;
23676;SDS011;31493;49.058;12.190;2024-01-15T12:27:39;11.07;;;6.30;;
23676;SDS011;31493;49.058;12.190;2024-01-15T12:30:07;13.32;;;6.10;;
23676;SDS011;31493;49.058;12.190;2024-01-15T12:32:37;9.32;;;5.20;;
23676;SDS011;31493;49.058;12.190;2024-01-15T12:35:05;11.48;;;6.60;;
23676;SDS011;31493;49.058;12.190;2024-01-15T12:37:34;11.88;;;6.70;;
23676;SDS011;31493;49.058;12.190;2024-01-15T12:40:02;14.00;;;6.88;;
23676;SDS011;31493;49.058;12.190;2024-01-15T12:42:30;14.73;;;6.77;;
23676;SDS011;31493;49.058;12.190;2024-01-15T12:44:57;11.82;;;6.07;;
23676;SDS011;31493;49.058;12.190;2024-01-15T12:47:23;11.07;;;6.10;;
23676;SDS011;31493;49.058;12.190;2024-01-15T12:49:51;11.70;;;5.15;;
23676;SDS011;31493;49.058;12.190;2024-01-15T12:52:21;11.05;;;5.57;;
23676;SDS011;31493;49.058;12.190;2024-01-15T12:54:48;12.50;;;5.28;;
23676;SDS011;31493;49.058;12.190;2024-01-15T12:57:15;10.98;;;5.38;;
23676;SDS011;31493;49.058;12.190;2024-01-15T12:59:42;11.70;;;5.78;;
23676;SDS011;31493;49.058;12.190;2024-01-15T13:02:10;10.20;;;5.43;;
23676;SDS011;31493;49.058;12.190;2024-01-15T13:04:37;10.75;;;5.63;;
23676;SDS011;31493;49.058;12.190;2024-01-15T13:07:05;12.02;;;6.28;;
23676;SDS011;31493;49.058;12.190;2024-01-15T13:09:33;9.27;;;4.70;;
23676;SDS011;31493;49.058;12.190;2024-01-15T13:12:01;12.00;;;5.32;;
23676;SDS011;31493;49.058;12.190;2024-01-15T13:14:28;10.55;;;6.13;;
23676;SDS011;31493;49.058;12.190;2024-01-15T13:16:55;11.35;;;5.93;;
23676;SDS011;31493;49.058;12.190;2024-01-15T13:19:24;12.52;;;4.78;;
23676;SDS011;31493;49.058;12.190;2024-01-15T13:21:51;9.85;;;5.28;;
23676;SDS011;31493;49.058;12.190;2024-01-15T13:24:19;9.50;;;5.33;;
23676;SDS011;31493;49.058;12.190;2024-01-15T13:26:48;12.27;;;5.40;;
23676;SDS011;31493;49.058;12.190;2024-01-15T13:29:15;7.22;;;4.18;;
23676;SDS011;31493;49.058;12.190;2024-01-15T13:31:42;13.40;;;6.45;;
23676;SDS011;31493;49.058;12.190;2024-01-15T13:34:12;10.18;;;5.60;;
23676;SDS011;31493;49.058;12.190;2024-01-15T13:36:39;11.82;;;4.70;;
23676;SDS011;31493;49.058;12.190;2024-01-15T13:39:06;8.75;;;5.03;;
23676;SDS011;31493;49.058;12.190;2024-01-15T13:41:34;7.80;;;4.88;;
23676;SDS011;31493;49.058;12.190;2024-01-15T13:44:03;12.30;;;5.65;;
23676;SDS011;31493;49.058;12.190;2024-01-15T13:46:30;10.85;;;4.90;;
23676;SDS011;31493;49.058;12.190;2024-01-15T13:48:59;10.93;;;5.70;;
23676;SDS011;31493;49.058;12.190;2024-01-15T13:51:27;10.55;;;5.60;;
23676;SDS011;31493;49.058;12.190;2024-01-15T13:53:55;6.73;;;3.33;;
23676;SDS011;31493;49.058;12.190;2024-01-15T13:56:22;10.27;;;5.40;;
23676;SDS011;31493;49.058;12.190;2024-01-15T13:58:49;10.60;;;5.43;;
23676;SDS011;31493;49.058;12.190;2024-01-15T14:01:18;8.07;;;4.70;;
23676;SDS011;31493;49.058;12.190;2024-01-15T14:03:46;7.32;;;4.43;;
23676;SDS011;31493;49.058;12.190;2024-01-15T14:06:13;8.80;;;4.45;;
23676;SDS011;31493;49.058;12.190;2024-01-15T14:08:40;11.98;;;6.10;;
23676;SDS011;31493;49.058;12.190;2024-01-15T14:11:07;10.38;;;5.93;;
23676;SDS011;31493;49.058;12.190;2024-01-15T14:13:35;11.32;;;5.45;;
23676;SDS011;31493;49.058;12.190;2024-01-15T14:16:02;9.70;;;4.35;;
23676;SDS011;31493;49.058;12.190;2024-01-15T14:18:32;8.13;;;4.35;;
23676;SDS011;31493;49.058;12.190;2024-01-15T14:20:59;13.98;;;6.28;;
23676;SDS011;31493;49.058;12.190;2024-01-15T14:23:26;11.40;;;5.32;;
23676;SDS011;31493;49.058;12.190;2024-01-15T14:25:53;7.90;;;4.50;;
23676;SDS011;31493;49.058;12.190;2024-01-15T14:28:21;15.00;;;6.10;;
23676;SDS011;31493;49.058;12.190;2024-01-15T14:30:49;10.45;;;5.97;;
23676;SDS011;31493;49.058;12.190;2024-01-15T14:33:17;12.45;;;5.97;;
23676;SDS011;31493;49.058;12.190;2024-01-15T14:35:45;11.57;;;6.22;;
23676;SDS011;31493;49.058;12.190;2024-01-15T14:38:12;9.60;;;5.65;;
23676;SDS011;31493;49.058;12.190;2024-01-15T14:40:39;7.45;;;4.53;;